createdAt,value
2017-10-14T00:02:24.152Z,5.60
2017-10-14T00:04:51.640Z,9.23
2017-10-14T00:07:19.283Z,7.32
2017-10-14T00:09:46.776Z,5.33
2017-10-14T00:12:14.321Z,5.23
2017-10-14T00:14:41.832Z,6.40
2017-10-14T00:17:10.159Z,6.80
2017-10-14T00:19:37.663Z,9.87
2017-10-14T00:22:05.976Z,5.90
2017-10-14T00:24:33.479Z,6.73
2017-10-14T00:27:01.062Z,8.77
2017-10-14T00:29:29.335Z,7.50
2017-10-14T00:31:57.618Z,8.37
2017-10-14T00:34:25.906Z,7.37
2017-10-14T00:36:53.405Z,10.40
2017-10-14T00:39:20.924Z,6.27
2017-10-14T00:41:48.438Z,8.00
2017-10-14T00:44:16.017Z,7.30
2017-10-14T00:46:44.281Z,8.10
2017-10-14T00:49:11.793Z,5.70
2017-10-14T00:51:39.285Z,11.07
2017-10-14T00:54:06.788Z,6.60
2017-10-14T00:56:34.294Z,7.40
2017-10-14T00:59:01.808Z,6.70
2017-10-14T01:01:29.309Z,9.30
2017-10-14T01:03:56.816Z,4.80
2017-10-14T01:06:24.358Z,9.20
2017-10-14T01:08:51.859Z,11.63
2017-10-14T01:11:19.361Z,13.27
2017-10-14T01:13:46.872Z,16.17
2017-10-14T01:16:14.491Z,16.37
2017-10-14T01:18:42.982Z,12.17
2017-10-14T01:21:11.247Z,8.97
2017-10-14T01:23:38.850Z,9.90
2017-10-14T01:26:06.373Z,7.90
2017-10-14T01:28:34.640Z,13.30
2017-10-14T01:31:02.158Z,10.93
2017-10-14T01:33:29.652Z,10.53
2017-10-14T01:35:57.173Z,8.40
2017-10-14T01:38:25.519Z,5.70
2017-10-14T01:40:53.096Z,9.20
2017-10-14T01:43:20.610Z,9.83
2017-10-14T01:45:48.130Z,6.00
2017-10-14T01:48:15.622Z,6.47
2017-10-14T01:50:43.124Z,6.97
2017-10-14T01:53:10.636Z,5.87
2017-10-14T01:55:38.145Z,6.13
2017-10-14T01:58:05.707Z,8.40
2017-10-14T02:00:33.220Z,7.33
2017-10-14T02:03:00.715Z,5.50
2017-10-14T02:05:28.209Z,8.13
2017-10-14T02:07:55.699Z,8.13
2017-10-14T02:10:23.979Z,9.73
2017-10-14T02:12:51.477Z,8.70
2017-10-14T02:15:18.980Z,9.53
2017-10-14T02:17:46.529Z,10.83
2017-10-14T02:20:14.038Z,12.60
2017-10-14T02:22:41.547Z,7.87
2017-10-14T02:25:09.071Z,8.93
2017-10-14T02:27:36.630Z,5.90
2017-10-14T02:30:04.157Z,9.37
2017-10-14T02:32:32.412Z,6.87
2017-10-14T02:34:59.939Z,4.93
2017-10-14T02:37:27.465Z,5.23
2017-10-14T02:39:54.952Z,5.00
2017-10-14T02:42:22.471Z,10.97
2017-10-14T02:44:50.770Z,5.03
2017-10-14T02:47:18.251Z,6.57
2017-10-14T02:49:45.739Z,4.73
2017-10-14T02:52:13.357Z,7.80
2017-10-14T02:54:40.850Z,11.05
2017-10-14T02:57:08.339Z,6.57
2017-10-14T02:59:36.632Z,5.37
2017-10-14T03:02:04.177Z,7.80
2017-10-14T03:04:33.241Z,12.82
2017-10-14T03:07:00.741Z,17.00
2017-10-14T03:09:29.003Z,11.93
2017-10-14T03:11:57.296Z,11.60
2017-10-14T03:14:25.741Z,11.70
2017-10-14T03:16:53.247Z,8.43
2017-10-14T03:19:20.751Z,13.63
2017-10-14T03:21:49.021Z,8.23
2017-10-14T03:24:16.532Z,7.30
2017-10-14T03:26:44.079Z,7.47
2017-10-14T03:29:12.328Z,6.00
2017-10-14T03:31:42.177Z,7.50
2017-10-14T03:34:09.680Z,6.50
2017-10-14T03:36:37.183Z,9.00
2017-10-14T03:39:05.450Z,8.97
2017-10-14T03:41:33.752Z,7.87
2017-10-14T03:44:01.267Z,5.73
2017-10-14T03:46:40.729Z,6.63
2017-10-14T03:49:09.131Z,8.73
2017-10-14T03:51:36.651Z,6.07
2017-10-14T03:54:04.139Z,9.60
2017-10-14T03:56:31.629Z,7.27
2017-10-14T03:58:59.145Z,12.30
2017-10-14T04:01:27.391Z,10.03
2017-10-14T04:03:54.906Z,10.63
2017-10-14T04:06:22.429Z,7.03
2017-10-14T04:08:50.700Z,8.37
2017-10-14T04:11:18.967Z,11.83
2017-10-14T04:13:46.467Z,6.53
2017-10-14T04:16:13.962Z,7.50
2017-10-14T04:18:41.510Z,4.80
2017-10-14T04:21:09.028Z,5.50
2017-10-14T04:23:37.308Z,8.23
2017-10-14T04:26:04.842Z,5.27
2017-10-14T04:28:32.341Z,6.80
2017-10-14T04:30:59.860Z,6.73
2017-10-14T04:33:27.382Z,5.45
2017-10-14T04:35:55.024Z,7.43
2017-10-14T04:38:22.516Z,4.77
2017-10-14T04:40:50.004Z,8.07
2017-10-14T04:43:18.340Z,7.53
2017-10-14T04:45:45.873Z,8.27
2017-10-14T04:48:13.382Z,6.40
2017-10-14T04:50:40.893Z,4.80
2017-10-14T04:53:08.423Z,9.50
2017-10-14T04:55:36.681Z,6.97
2017-10-14T04:58:04.244Z,6.17
2017-10-14T05:00:31.717Z,6.20
2017-10-14T05:02:59.986Z,17.10
2017-10-14T05:05:28.616Z,11.30
2017-10-14T05:07:56.142Z,7.37
2017-10-14T05:10:24.440Z,8.60
2017-10-14T05:12:53.304Z,12.40
2017-10-14T05:15:21.601Z,14.30
2017-10-14T05:17:49.106Z,9.70
2017-10-14T05:20:16.688Z,11.13
2017-10-14T05:22:44.184Z,10.77
2017-10-14T05:25:11.687Z,13.73
2017-10-14T05:27:39.190Z,13.18
2017-10-14T05:30:06.721Z,11.00
2017-10-14T05:32:34.208Z,8.93
2017-10-14T05:35:01.723Z,12.33
2017-10-14T05:37:29.232Z,13.87
2017-10-14T05:39:56.755Z,15.47
2017-10-14T05:42:24.273Z,9.83
2017-10-14T05:44:51.805Z,12.67
2017-10-14T05:47:19.432Z,11.27
2017-10-14T05:49:48.656Z,16.10
2017-10-14T05:52:16.345Z,12.57
2017-10-14T05:54:43.839Z,15.43
2017-10-14T05:57:11.342Z,11.23
2017-10-14T05:59:38.831Z,11.80
2017-10-14T06:02:06.345Z,11.07
2017-10-14T06:04:34.618Z,8.30
2017-10-14T06:07:02.871Z,9.90
2017-10-14T06:09:30.378Z,9.07
2017-10-14T06:11:57.926Z,8.32
2017-10-14T06:14:25.436Z,11.57
2017-10-14T06:16:53.031Z,9.33
2017-10-14T06:19:21.313Z,6.27
2017-10-14T06:21:49.585Z,8.47
2017-10-14T06:24:17.281Z,7.60
2017-10-14T06:26:44.838Z,9.30
2017-10-14T06:29:12.349Z,7.90
2017-10-14T06:31:39.836Z,6.50
2017-10-14T06:34:07.412Z,6.22
2017-10-14T06:36:34.920Z,7.00
2017-10-14T06:39:02.444Z,8.87
2017-10-14T06:41:29.986Z,8.77
2017-10-14T06:43:57.496Z,11.37
2017-10-14T06:46:25.000Z,12.40
2017-10-14T06:48:52.508Z,12.83
2017-10-14T06:51:20.028Z,10.10
2017-10-14T06:53:47.518Z,10.07
2017-10-14T06:56:15.047Z,7.18
2017-10-14T06:58:42.595Z,9.20
2017-10-14T07:01:10.096Z,6.67
2017-10-14T07:03:37.601Z,7.97
2017-10-14T07:06:05.124Z,9.30
2017-10-14T07:08:32.603Z,8.10
2017-10-14T07:11:00.913Z,10.10
2017-10-14T07:13:28.408Z,8.33
2017-10-14T07:15:55.901Z,8.40
2017-10-14T07:18:23.426Z,6.17
2017-10-14T07:20:51.663Z,8.60
2017-10-14T07:23:19.180Z,8.10
2017-10-14T07:25:51.160Z,7.80
2017-10-14T07:28:18.731Z,6.37
2017-10-14T07:30:46.212Z,7.07
2017-10-14T07:33:13.720Z,7.93
2017-10-14T07:35:42.014Z,7.70
2017-10-14T07:38:09.617Z,8.97
2017-10-14T07:40:37.128Z,10.40
2017-10-14T07:43:05.424Z,10.87
2017-10-14T07:45:32.996Z,9.13
2017-10-14T07:48:00.539Z,6.80
2017-10-14T07:50:28.104Z,7.77
2017-10-14T07:52:55.610Z,8.07
2017-10-14T07:55:23.120Z,8.97
2017-10-14T07:57:50.652Z,9.07
2017-10-14T08:00:18.910Z,9.73
2017-10-14T08:02:47.960Z,9.82
2017-10-14T08:05:15.799Z,8.40
2017-10-14T08:07:44.106Z,10.53
2017-10-14T08:10:12.571Z,8.90
2017-10-14T08:12:40.080Z,11.67
2017-10-14T08:15:08.327Z,9.80
2017-10-14T08:17:35.877Z,9.17
2017-10-14T08:20:03.374Z,7.80
2017-10-14T08:22:30.908Z,10.77
2017-10-14T08:24:58.435Z,12.75
2017-10-14T08:27:25.950Z,10.80
2017-10-14T08:29:53.433Z,10.97
2017-10-14T08:32:21.699Z,12.33
2017-10-14T08:34:50.020Z,10.17
2017-10-14T08:37:17.530Z,10.80
2017-10-14T08:39:45.136Z,11.60
2017-10-14T08:42:12.672Z,12.33
2017-10-14T08:44:40.196Z,17.17
2017-10-14T08:47:07.729Z,13.38
2017-10-14T08:49:35.285Z,10.60
2017-10-14T08:52:02.780Z,11.43
2017-10-14T08:54:30.337Z,12.30
2017-10-14T08:56:57.845Z,13.27
2017-10-14T08:59:25.339Z,12.10
2017-10-14T09:01:52.862Z,14.17
2017-10-14T09:04:20.364Z,13.53
2017-10-14T09:06:47.936Z,13.20
2017-10-14T09:09:15.485Z,17.25
2017-10-14T09:11:42.992Z,12.10
2017-10-14T09:14:10.661Z,11.20
2017-10-14T09:16:38.180Z,17.43
2017-10-14T09:19:06.504Z,18.33
2017-10-14T09:21:33.996Z,19.67
2017-10-14T09:24:01.515Z,30.73
2017-10-14T09:26:29.939Z,25.17
2017-10-14T09:28:57.470Z,16.80
2017-10-14T09:31:25.150Z,17.33
2017-10-14T09:33:52.664Z,14.73
2017-10-14T09:36:20.205Z,13.47
2017-10-14T09:38:48.817Z,18.87
2017-10-14T09:41:16.465Z,17.53
2017-10-14T09:43:44.075Z,17.33
2017-10-14T09:46:11.803Z,16.43
2017-10-14T09:48:39.467Z,13.27
2017-10-14T09:51:07.782Z,14.53
2017-10-14T09:53:35.406Z,18.77
2017-10-14T09:56:03.192Z,11.60
2017-10-14T09:58:30.957Z,11.40
2017-10-14T10:00:58.708Z,14.30
2017-10-14T10:03:26.344Z,11.67
2017-10-14T10:05:54.005Z,14.23
2017-10-14T10:08:21.562Z,12.80
2017-10-14T10:10:49.910Z,15.70
2017-10-14T10:13:17.498Z,11.20
2017-10-14T10:15:45.199Z,12.07
2017-10-14T10:18:12.782Z,11.70
2017-10-14T10:20:40.543Z,13.93
2017-10-14T10:23:10.747Z,11.23
2017-10-14T10:25:40.231Z,12.88
2017-10-14T10:28:07.909Z,11.97
2017-10-14T10:30:35.575Z,9.23
2017-10-14T10:33:03.219Z,10.53
2017-10-14T10:35:30.878Z,9.77
2017-10-14T10:37:59.129Z,9.90
2017-10-14T10:40:27.527Z,11.63
2017-10-14T10:42:55.125Z,12.30
2017-10-14T10:45:22.758Z,9.13
2017-10-14T10:47:50.527Z,10.93
2017-10-14T10:50:18.120Z,10.17
2017-10-14T10:52:45.766Z,12.00
2017-10-14T10:55:13.410Z,10.47
2017-10-14T10:57:41.177Z,8.00
2017-10-14T11:00:08.821Z,8.37
2017-10-14T11:02:37.432Z,7.50
2017-10-14T11:05:05.025Z,7.40
2017-10-14T11:07:32.674Z,7.57
2017-10-14T11:10:00.328Z,10.63
2017-10-14T11:12:28.069Z,9.33
2017-10-14T11:14:56.616Z,8.33
2017-10-14T11:17:25.114Z,7.50
2017-10-14T11:19:52.719Z,8.23
2017-10-14T11:22:20.310Z,9.43
2017-10-14T11:24:49.970Z,8.63
2017-10-14T11:27:17.574Z,7.20
2017-10-14T11:29:45.281Z,11.37
2017-10-14T11:32:13.004Z,7.57
2017-10-14T11:34:40.522Z,9.20
2017-10-14T11:37:08.274Z,9.13
2017-10-14T11:39:35.845Z,7.67
2017-10-14T11:42:03.434Z,8.37
2017-10-14T11:44:31.172Z,8.18
2017-10-14T11:46:58.814Z,8.57
2017-10-14T11:49:26.417Z,8.20
2017-10-14T11:51:54.049Z,7.70
2017-10-14T11:54:21.582Z,8.80
2017-10-14T11:56:49.127Z,8.10
2017-10-14T11:59:17.515Z,12.25
2017-10-14T12:01:46.460Z,9.13
2017-10-14T12:04:14.317Z,9.73
2017-10-14T12:06:41.906Z,8.67
2017-10-14T12:09:09.610Z,6.67
2017-10-14T12:11:37.190Z,8.20
2017-10-14T12:14:05.686Z,7.33
2017-10-14T12:16:33.315Z,8.93
2017-10-14T12:19:00.973Z,6.60
2017-10-14T12:21:28.776Z,7.43
2017-10-14T12:23:56.398Z,6.17
2017-10-14T12:26:23.954Z,8.23
2017-10-14T12:28:51.568Z,5.90
2017-10-14T12:31:19.143Z,6.50
2017-10-14T12:33:48.235Z,6.23
2017-10-14T12:36:17.395Z,6.47
2017-10-14T12:38:44.929Z,6.55
2017-10-14T12:41:12.703Z,8.60
2017-10-14T12:43:40.294Z,7.23
2017-10-14T12:46:07.950Z,7.77
2017-10-14T12:48:35.495Z,5.23
2017-10-14T12:51:03.004Z,5.63
2017-10-14T12:53:31.293Z,5.20
2017-10-14T12:55:59.574Z,6.23
2017-10-14T12:58:27.849Z,5.47
2017-10-14T13:00:56.154Z,4.93
2017-10-14T13:03:23.704Z,8.20
2017-10-14T13:05:51.211Z,5.40
2017-10-14T13:08:18.697Z,5.30
2017-10-14T13:10:46.999Z,9.73
2017-10-14T13:13:14.565Z,5.07
2017-10-14T13:15:42.080Z,5.53
2017-10-14T13:18:09.611Z,6.00
2017-10-14T13:20:37.141Z,5.00
2017-10-14T13:23:04.699Z,4.40
2017-10-14T13:25:32.232Z,5.30
2017-10-14T13:28:00.525Z,6.00
2017-10-14T13:30:28.039Z,5.13
2017-10-14T13:32:55.548Z,4.33
2017-10-14T13:35:23.308Z,4.90
2017-10-14T13:37:50.878Z,4.87
2017-10-14T13:40:18.400Z,4.70
2017-10-14T13:42:46.813Z,4.47
2017-10-14T13:45:14.337Z,6.90
2017-10-14T13:47:42.655Z,4.37
2017-10-14T13:50:10.184Z,6.73
2017-10-14T13:52:38.447Z,6.70
2017-10-14T13:55:06.046Z,6.80
2017-10-14T13:57:33.579Z,4.10
2017-10-14T14:00:01.860Z,5.87
2017-10-14T14:02:30.191Z,4.60
2017-10-14T14:04:57.695Z,5.17
2017-10-14T14:07:26.100Z,5.05
2017-10-14T14:09:53.600Z,4.00
2017-10-14T14:12:21.131Z,4.70
2017-10-14T14:14:48.639Z,4.40
2017-10-14T14:17:16.942Z,8.23
2017-10-14T14:19:44.516Z,5.30
2017-10-14T14:22:12.102Z,6.57
2017-10-14T14:24:39.724Z,6.63
2017-10-14T14:27:07.245Z,10.10
2017-10-14T14:29:34.744Z,8.67
2017-10-14T14:32:02.516Z,7.00
2017-10-14T14:34:30.015Z,7.00
2017-10-14T14:36:57.580Z,9.07
2017-10-14T14:39:25.191Z,8.47
2017-10-14T14:41:52.907Z,7.70
2017-10-14T14:44:20.467Z,10.40
2017-10-14T14:46:48.001Z,11.00
2017-10-14T14:49:15.633Z,13.93
2017-10-14T14:51:43.465Z,10.50
2017-10-14T14:54:11.732Z,8.60
2017-10-14T14:56:39.998Z,7.20
2017-10-14T14:59:07.511Z,8.37
2017-10-14T15:01:35.058Z,7.53
2017-10-14T15:04:02.615Z,8.00
2017-10-14T15:06:30.156Z,8.27
2017-10-14T15:08:58.438Z,8.90
2017-10-14T15:11:26.712Z,7.33
2017-10-14T15:13:55.004Z,8.20
2017-10-14T15:16:22.605Z,11.80
2017-10-14T15:18:50.152Z,7.97
2017-10-14T15:21:17.681Z,10.90
2017-10-14T15:23:45.977Z,11.73
2017-10-14T15:26:13.491Z,11.23
2017-10-14T15:28:41.788Z,10.23
2017-10-14T15:31:10.189Z,12.80
2017-10-14T15:33:37.696Z,9.43
2017-10-14T15:36:05.191Z,9.50
2017-10-14T15:38:32.703Z,9.23
2017-10-14T15:41:00.207Z,9.73
2017-10-14T15:43:28.229Z,10.60
2017-10-14T15:45:55.741Z,9.00
2017-10-14T15:48:23.262Z,14.33
2017-10-14T15:50:50.767Z,10.23
2017-10-14T15:53:18.332Z,9.77
2017-10-14T15:55:46.919Z,9.73
2017-10-14T15:58:14.431Z,12.27
2017-10-14T16:00:42.762Z,11.57
2017-10-14T16:03:10.264Z,11.43
2017-10-14T16:05:37.814Z,10.90
2017-10-14T16:08:05.351Z,8.80
2017-10-14T16:10:32.861Z,9.40
2017-10-14T16:13:01.154Z,11.93
2017-10-14T16:15:28.829Z,15.10
2017-10-14T16:17:56.316Z,9.53
2017-10-14T16:20:23.845Z,11.77
2017-10-14T16:22:51.323Z,14.50
2017-10-14T16:25:18.849Z,16.27
2017-10-14T16:27:46.347Z,11.67
2017-10-14T16:30:13.879Z,16.40
2017-10-14T16:32:41.390Z,14.23
2017-10-14T16:35:10.015Z,12.97
2017-10-14T16:37:37.549Z,12.70
2017-10-14T16:40:05.875Z,13.87
2017-10-14T16:42:33.415Z,16.50
2017-10-14T16:45:00.944Z,10.40
2017-10-14T16:47:29.216Z,9.77
2017-10-14T16:49:57.486Z,11.60
2017-10-14T16:52:25.189Z,11.83
2017-10-14T16:54:52.735Z,11.03
2017-10-14T16:57:21.156Z,12.90
2017-10-14T16:59:48.665Z,11.57
2017-10-14T17:02:16.948Z,10.70
2017-10-14T17:04:44.436Z,12.63
2017-10-14T17:07:11.988Z,14.30
2017-10-14T17:09:39.638Z,10.10
2017-10-14T17:12:07.153Z,12.17
2017-10-14T17:14:34.651Z,11.37
2017-10-14T17:17:02.186Z,16.70
2017-10-14T17:19:30.495Z,8.87
2017-10-14T17:21:58.721Z,13.03
2017-10-14T17:24:26.249Z,11.33
2017-10-14T17:26:53.768Z,9.70
2017-10-14T17:29:22.039Z,10.03
2017-10-14T17:31:50.343Z,7.87
2017-10-14T17:34:17.897Z,11.20
2017-10-14T17:36:45.429Z,8.97
2017-10-14T17:39:13.734Z,8.90
2017-10-14T17:41:41.361Z,10.00
2017-10-14T17:44:09.641Z,8.70
2017-10-14T17:46:37.921Z,8.77
2017-10-14T17:49:06.217Z,10.35
2017-10-14T17:51:33.721Z,10.07
2017-10-14T17:54:01.251Z,10.70
2017-10-14T17:56:28.845Z,11.97
2017-10-14T17:58:56.360Z,9.70
2017-10-14T18:01:23.898Z,12.00
2017-10-14T18:03:52.195Z,15.77
2017-10-14T18:06:19.727Z,10.70
2017-10-14T18:08:48.115Z,14.10
2017-10-14T18:11:16.402Z,10.33
2017-10-14T18:13:43.938Z,8.80
2017-10-14T18:16:12.236Z,17.30
2017-10-14T18:18:39.760Z,10.57
2017-10-14T18:21:07.253Z,9.77
2017-10-14T18:23:34.800Z,13.03
2017-10-14T18:26:03.086Z,10.40
2017-10-14T18:28:31.476Z,9.23
2017-10-14T18:30:59.003Z,8.87
2017-10-14T18:33:27.430Z,10.60
2017-10-14T18:35:55.087Z,8.70
2017-10-14T18:38:22.597Z,16.30
2017-10-14T18:40:50.112Z,12.80
2017-10-14T18:43:17.776Z,12.67
2017-10-14T18:45:45.332Z,10.47
2017-10-14T18:48:13.763Z,9.87
2017-10-14T18:50:42.067Z,9.63
2017-10-14T18:53:09.633Z,10.60
2017-10-14T18:55:37.141Z,14.30
2017-10-14T18:58:04.699Z,13.83
2017-10-14T19:00:32.320Z,12.67
2017-10-14T19:02:59.823Z,15.13
2017-10-14T19:05:27.521Z,16.97
2017-10-14T19:07:55.066Z,13.50
2017-10-14T19:10:23.360Z,12.77
2017-10-14T19:12:51.039Z,12.57
2017-10-14T19:15:18.552Z,10.93
2017-10-14T19:17:46.976Z,13.23
2017-10-14T19:20:14.534Z,10.20
2017-10-14T19:22:42.952Z,8.40
2017-10-14T19:25:10.788Z,11.27
2017-10-14T19:27:38.500Z,9.87
2017-10-14T19:30:06.034Z,10.60
2017-10-14T19:32:33.606Z,11.13
2017-10-14T19:35:01.108Z,10.87
2017-10-14T19:37:28.634Z,10.83
2017-10-14T19:39:56.910Z,12.88
2017-10-14T19:42:24.428Z,17.00
2017-10-14T19:44:51.933Z,12.20
2017-10-14T19:47:20.206Z,8.70
2017-10-14T19:49:48.668Z,9.10
2017-10-14T19:52:16.194Z,12.43
2017-10-14T19:54:43.854Z,10.27
2017-10-14T19:57:11.354Z,11.93
2017-10-14T19:59:38.874Z,16.60
2017-10-14T20:02:06.403Z,12.57
2017-10-14T20:04:34.689Z,13.63
2017-10-14T20:07:02.943Z,12.63
2017-10-14T20:09:31.227Z,13.80
2017-10-14T20:11:59.730Z,12.97
2017-10-14T20:14:27.267Z,13.17
2017-10-14T20:16:55.647Z,15.13
2017-10-14T20:19:23.981Z,14.53
2017-10-14T20:21:51.469Z,13.20
2017-10-14T20:24:18.985Z,11.65
2017-10-14T20:26:46.494Z,13.67
2017-10-14T20:29:14.788Z,10.50
2017-10-14T20:31:42.339Z,10.20
2017-10-14T20:34:10.646Z,11.50
2017-10-14T20:36:38.631Z,15.77
2017-10-14T20:39:06.254Z,12.00
2017-10-14T20:41:34.776Z,14.07
2017-10-14T20:44:02.309Z,15.60
2017-10-14T20:46:29.829Z,14.70
2017-10-14T20:48:57.364Z,13.43
2017-10-14T20:51:24.900Z,14.30
2017-10-14T20:53:52.434Z,12.40
2017-10-14T20:56:21.443Z,13.13
2017-10-14T20:58:48.966Z,11.47
2017-10-14T21:01:16.464Z,15.53
2017-10-14T21:03:43.990Z,13.30
2017-10-14T21:06:12.260Z,14.33
2017-10-14T21:08:40.522Z,12.90
2017-10-14T21:11:08.079Z,13.20
2017-10-14T21:13:35.597Z,13.60
2017-10-14T21:16:03.119Z,14.20
2017-10-14T21:18:30.752Z,15.25
2017-10-14T21:20:58.272Z,14.63
2017-10-14T21:23:25.770Z,12.60
2017-10-14T21:25:53.316Z,12.70
2017-10-14T21:28:20.848Z,13.00
2017-10-14T21:30:48.373Z,12.37
2017-10-14T21:33:16.654Z,14.37
2017-10-14T21:35:44.943Z,11.80
2017-10-14T21:38:12.440Z,14.97
2017-10-14T21:40:39.956Z,12.00
2017-10-14T21:43:07.513Z,17.17
2017-10-14T21:45:35.835Z,13.50
2017-10-14T21:48:03.365Z,15.47
2017-10-14T21:50:30.935Z,11.70
2017-10-14T21:52:58.433Z,12.53
2017-10-14T21:55:25.939Z,12.77
2017-10-14T21:57:53.443Z,13.70
2017-10-14T22:00:20.987Z,13.07
2017-10-14T22:02:48.561Z,11.00
2017-10-14T22:05:16.268Z,10.77
2017-10-14T22:07:44.577Z,11.47
2017-10-14T22:10:12.864Z,12.07
2017-10-14T22:12:40.423Z,11.73
2017-10-14T22:15:07.926Z,12.55
2017-10-14T22:17:36.240Z,16.50
2017-10-14T22:20:03.798Z,12.00
2017-10-14T22:22:31.332Z,21.03
2017-10-14T22:24:59.590Z,14.57
2017-10-14T22:27:27.107Z,11.57
2017-10-14T22:29:54.631Z,11.30
2017-10-14T22:32:22.166Z,11.47
2017-10-14T22:34:50.486Z,13.77
2017-10-14T22:37:18.010Z,12.63
2017-10-14T22:39:46.315Z,11.90
2017-10-14T22:42:13.871Z,11.67
2017-10-14T22:44:41.378Z,10.37
2017-10-14T22:47:08.882Z,11.00
2017-10-14T22:49:36.386Z,11.70
2017-10-14T22:52:03.899Z,11.37
2017-10-14T22:54:32.174Z,11.53
2017-10-14T22:57:00.459Z,12.13
2017-10-14T22:59:28.012Z,10.35
2017-10-14T23:01:55.544Z,11.00
2017-10-14T23:04:23.814Z,14.00
2017-10-14T23:06:51.368Z,10.57
2017-10-14T23:09:18.877Z,13.87
2017-10-14T23:11:46.545Z,11.30
2017-10-14T23:14:14.065Z,11.80
2017-10-14T23:16:42.375Z,14.93
2017-10-14T23:19:09.912Z,14.60
2017-10-14T23:21:37.456Z,13.13
2017-10-14T23:24:04.976Z,10.93
2017-10-14T23:26:32.487Z,13.17
2017-10-14T23:29:00.781Z,10.63
2017-10-14T23:31:28.607Z,11.33
2017-10-14T23:33:56.136Z,11.60
2017-10-14T23:36:23.656Z,11.83
2017-10-14T23:38:51.944Z,11.57
2017-10-14T23:41:19.464Z,11.33
2017-10-14T23:43:46.975Z,14.23
2017-10-14T23:46:14.483Z,14.30
2017-10-14T23:48:42.058Z,13.57
2017-10-14T23:51:10.341Z,14.50
2017-10-14T23:53:38.579Z,12.00
2017-10-14T23:56:06.073Z,11.83
2017-10-14T23:58:34.372Z,10.43
